sensor_id;sensor_type;location;lat;lon;timestamp;P1;durP1;ratioP1;P2;durP2;ratioP2
69414;SDS011;56608;43.530;-5.652;2023-01-01T19:36:39;4.85;;;1.70;;
69414;SDS011;56608;43.530;-5.652;2023-01-01T19:37:40;5.80;;;1.83;;
69414;SDS011;56608;43.530;-5.652;2023-01-01T19:38:42;6.35;;;1.92;;
69414;SDS011;56608;43.530;-5.652;2023-01-01T19:39:44;2.37;;;1.42;;
69414;SDS011;56608;43.530;-5.652;2023-01-01T19:41:46;3.25;;;1.30;;
69414;SDS011;56608;43.530;-5.652;2023-01-01T19:42:48;4.75;;;1.85;;
69414;SDS011;56608;43.530;-5.652;2023-01-01T19:43:50;3.40;;;1.60;;
69414;SDS011;56608;43.530;-5.652;2023-01-01T19:44:51;3.78;;;1.75;;
69414;SDS011;56608;43.530;-5.652;2023-01-01T19:45:54;5.93;;;1.92;;
69414;SDS011;56608;43.530;-5.652;2023-01-01T19:46:55;4.45;;;1.62;;
69414;SDS011;56608;43.530;-5.652;2023-01-01T19:47:57;3.80;;;1.30;;
69414;SDS011;56608;43.530;-5.652;2023-01-01T19:48:58;4.95;;;1.40;;
69414;SDS011;56608;43.530;-5.652;2023-01-01T19:49:59;6.35;;;1.70;;
69414;SDS011;56608;43.530;-5.652;2023-01-01T19:51:01;3.08;;;1.27;;
69414;SDS011;56608;43.530;-5.652;2023-01-01T19:52:02;4.90;;;1.45;;
69414;SDS011;56608;43.530;-5.652;2023-01-01T19:53:04;4.12;;;1.87;;
69414;SDS011;56608;43.530;-5.652;2023-01-01T19:54:05;5.87;;;1.60;;
69414;SDS011;56608;43.530;-5.652;2023-01-01T19:56:08;4.05;;;1.50;;
69414;SDS011;56608;43.530;-5.652;2023-01-01T19:57:09;5.32;;;1.52;;
69414;SDS011;56608;43.530;-5.652;2023-01-01T19:58:11;6.43;;;1.40;;
69414;SDS011;56608;43.530;-5.652;2023-01-01T19:59:12;4.68;;;1.95;;
69414;SDS011;56608;43.530;-5.652;2023-01-01T20:00:13;5.55;;;1.70;;
69414;SDS011;56608;43.530;-5.652;2023-01-01T20:01:15;6.82;;;2.33;;
69414;SDS011;56608;43.530;-5.652;2023-01-01T20:03:18;6.82;;;2.28;;
69414;SDS011;56608;43.530;-5.652;2023-01-01T20:04:19;5.95;;;2.10;;
69414;SDS011;56608;43.530;-5.652;2023-01-01T20:05:21;5.15;;;2.37;;
69414;SDS011;56608;43.530;-5.652;2023-01-01T20:07:23;4.50;;;2.17;;
69414;SDS011;56608;43.530;-5.652;2023-01-01T20:08:25;4.12;;;2.47;;
69414;SDS011;56608;43.530;-5.652;2023-01-01T20:09:28;7.07;;;2.53;;
69414;SDS011;56608;43.530;-5.652;2023-01-01T20:10:29;8.85;;;3.65;;
69414;SDS011;56608;43.530;-5.652;2023-01-01T20:12:31;7.10;;;2.80;;
69414;SDS011;56608;43.530;-5.652;2023-01-01T20:13:33;6.40;;;3.00;;
69414;SDS011;56608;43.530;-5.652;2023-01-01T20:14:34;5.70;;;2.85;;
69414;SDS011;56608;43.530;-5.652;2023-01-01T20:15:36;6.90;;;3.00;;
69414;SDS011;56608;43.530;-5.652;2023-01-01T20:16:37;5.30;;;3.20;;
69414;SDS011;56608;43.530;-5.652;2023-01-01T20:17:39;6.18;;;3.35;;
69414;SDS011;56608;43.530;-5.652;2023-01-01T20:18:41;6.32;;;3.37;;
69414;SDS011;56608;43.530;-5.652;2023-01-01T20:19:43;6.12;;;3.25;;
69414;SDS011;56608;43.530;-5.652;2023-01-01T20:20:44;6.57;;;3.12;;
69414;SDS011;56608;43.530;-5.652;2023-01-01T20:22:04;6.55;;;3.10;;
69414;SDS011;56608;43.530;-5.652;2023-01-01T20:23:12;7.70;;;3.70;;
69414;SDS011;56608;43.530;-5.652;2023-01-01T20:24:13;8.30;;;4.00;;
69414;SDS011;56608;43.530;-5.652;2023-01-01T20:25:17;6.22;;;4.12;;
69414;SDS011;56608;43.530;-5.652;2023-01-01T20:26:17;8.95;;;3.70;;
69414;SDS011;56608;43.530;-5.652;2023-01-01T20:27:20;5.97;;;3.75;;
69414;SDS011;56608;43.530;-5.652;2023-01-01T20:28:24;7.07;;;4.05;;
69414;SDS011;56608;43.530;-5.652;2023-01-01T20:29:44;7.73;;;4.20;;
69414;SDS011;56608;43.530;-5.652;2023-01-01T20:30:45;9.60;;;4.18;;
69414;SDS011;56608;43.530;-5.652;2023-01-01T20:31:47;10.43;;;4.30;;
69414;SDS011;56608;43.530;-5.652;2023-01-01T20:32:50;10.10;;;4.60;;
69414;SDS011;56608;43.530;-5.652;2023-01-01T20:33:52;9.13;;;4.30;;
69414;SDS011;56608;43.530;-5.652;2023-01-01T20:34:53;7.13;;;4.73;;
69414;SDS011;56608;43.530;-5.652;2023-01-01T20:35:54;8.20;;;4.70;;
69414;SDS011;56608;43.530;-5.652;2023-01-01T20:37:14;9.57;;;5.77;;
69414;SDS011;56608;43.530;-5.652;2023-01-01T20:38:33;8.70;;;4.53;;
69414;SDS011;56608;43.530;-5.652;2023-01-01T20:39:35;7.25;;;4.32;;
69414;SDS011;56608;43.530;-5.652;2023-01-01T20:40:36;5.70;;;4.35;;
69414;SDS011;56608;43.530;-5.652;2023-01-01T20:41:38;7.25;;;4.70;;
69414;SDS011;56608;43.530;-5.652;2023-01-01T20:42:39;9.07;;;5.25;;
69414;SDS011;56608;43.530;-5.652;2023-01-01T20:43:40;11.30;;;5.50;;
69414;SDS011;56608;43.530;-5.652;2023-01-01T20:44:42;9.55;;;5.00;;
69414;SDS011;56608;43.530;-5.652;2023-01-01T20:45:44;9.02;;;5.32;;
69414;SDS011;56608;43.530;-5.652;2023-01-01T20:46:45;10.90;;;5.35;;
69414;SDS011;56608;43.530;-5.652;2023-01-01T20:47:48;7.78;;;5.28;;
69414;SDS011;56608;43.530;-5.652;2023-01-01T20:48:49;10.60;;;5.70;;
69414;SDS011;56608;43.530;-5.652;2023-01-01T20:50:52;9.63;;;5.85;;
69414;SDS011;56608;43.530;-5.652;2023-01-01T20:51:53;11.30;;;6.43;;
69414;SDS011;56608;43.530;-5.652;2023-01-01T20:52:54;11.70;;;6.70;;
69414;SDS011;56608;43.530;-5.652;2023-01-01T20:53:56;10.38;;;5.97;;
69414;SDS011;56608;43.530;-5.652;2023-01-01T20:54:57;8.93;;;5.57;;
69414;SDS011;56608;43.530;-5.652;2023-01-01T20:55:57;9.55;;;5.60;;
69414;SDS011;56608;43.530;-5.652;2023-01-01T20:56:59;10.07;;;5.43;;
69414;SDS011;56608;43.530;-5.652;2023-01-01T20:58:01;9.03;;;5.50;;
69414;SDS011;56608;43.530;-5.652;2023-01-01T20:59:02;10.10;;;5.60;;
69414;SDS011;56608;43.530;-5.652;2023-01-01T21:00:04;11.60;;;5.57;;
69414;SDS011;56608;43.530;-5.652;2023-01-01T21:01:06;6.75;;;4.45;;
69414;SDS011;56608;43.530;-5.652;2023-01-01T21:02:09;9.55;;;5.12;;
69414;SDS011;56608;43.530;-5.652;2023-01-01T21:03:11;7.03;;;4.47;;
69414;SDS011;56608;43.530;-5.652;2023-01-01T21:04:12;13.68;;;5.57;;
69414;SDS011;56608;43.530;-5.652;2023-01-01T21:05:14;6.12;;;4.35;;
69414;SDS011;56608;43.530;-5.652;2023-01-01T21:06:15;8.23;;;4.68;;
69414;SDS011;56608;43.530;-5.652;2023-01-01T21:07:16;7.70;;;4.05;;
69414;SDS011;56608;43.530;-5.652;2023-01-01T21:08:18;5.75;;;3.50;;
69414;SDS011;56608;43.530;-5.652;2023-01-01T21:09:19;7.70;;;3.95;;
69414;SDS011;56608;43.530;-5.652;2023-01-01T21:10:21;4.97;;;3.47;;
69414;SDS011;56608;43.530;-5.652;2023-01-01T21:11:22;7.43;;;3.95;;
69414;SDS011;56608;43.530;-5.652;2023-01-01T21:12:23;9.43;;;4.32;;
69414;SDS011;56608;43.530;-5.652;2023-01-01T21:13:25;7.12;;;3.55;;
69414;SDS011;56608;43.530;-5.652;2023-01-01T21:14:26;7.20;;;3.95;;
69414;SDS011;56608;43.530;-5.652;2023-01-01T21:15:28;9.93;;;3.55;;
69414;SDS011;56608;43.530;-5.652;2023-01-01T21:16:36;8.93;;;4.05;;
69414;SDS011;56608;43.530;-5.652;2023-01-01T21:17:42;10.95;;;4.68;;
69414;SDS011;56608;43.530;-5.652;2023-01-01T21:19:45;7.45;;;3.30;;
69414;SDS011;56608;43.530;-5.652;2023-01-01T21:20:47;10.65;;;3.10;;
69414;SDS011;56608;43.530;-5.652;2023-01-01T21:21:49;6.07;;;2.90;;
69414;SDS011;56608;43.530;-5.652;2023-01-01T21:22:52;8.00;;;2.85;;
69414;SDS011;56608;43.530;-5.652;2023-01-01T21:24:01;4.78;;;2.60;;
69414;SDS011;56608;43.530;-5.652;2023-01-01T21:26:27;5.22;;;2.10;;
69414;SDS011;56608;43.530;-5.652;2023-01-01T21:27:36;3.28;;;1.95;;
69414;SDS011;56608;43.530;-5.652;2023-01-01T21:29:48;5.70;;;2.33;;
69414;SDS011;56608;43.530;-5.652;2023-01-01T21:30:53;4.40;;;1.90;;
69414;SDS011;56608;43.530;-5.652;2023-01-01T21:31:59;4.62;;;2.15;;
69414;SDS011;56608;43.530;-5.652;2023-01-01T21:33:22;4.67;;;2.27;;
69414;SDS011;56608;43.530;-5.652;2023-01-01T21:34:35;5.43;;;2.00;;
69414;SDS011;56608;43.530;-5.652;2023-01-01T21:35:42;7.45;;;2.20;;
69414;SDS011;56608;43.530;-5.652;2023-01-01T21:36:44;9.40;;;2.45;;
69414;SDS011;56608;43.530;-5.652;2023-01-01T21:37:46;7.12;;;3.10;;
69414;SDS011;56608;43.530;-5.652;2023-01-01T21:38:57;7.55;;;2.65;;
69414;SDS011;56608;43.530;-5.652;2023-01-01T21:41:25;3.17;;;1.48;;
69414;SDS011;56608;43.530;-5.652;2023-01-01T21:42:26;9.77;;;1.98;;
69414;SDS011;56608;43.530;-5.652;2023-01-01T21:44:32;6.85;;;2.08;;
69414;SDS011;56608;43.530;-5.652;2023-01-01T21:45:34;6.25;;;1.77;;
69414;SDS011;56608;43.530;-5.652;2023-01-01T21:46:36;7.07;;;1.87;;
69414;SDS011;56608;43.530;-5.652;2023-01-01T21:47:40;3.83;;;1.65;;
69414;SDS011;56608;43.530;-5.652;2023-01-01T21:50:02;5.35;;;1.23;;
69414;SDS011;56608;43.530;-5.652;2023-01-01T21:51:15;6.05;;;1.10;;
69414;SDS011;56608;43.530;-5.652;2023-01-01T21:52:21;3.62;;;1.50;;
69414;SDS011;56608;43.530;-5.652;2023-01-01T21:53:29;6.65;;;1.30;;
69414;SDS011;56608;43.530;-5.652;2023-01-01T21:54:33;4.62;;;1.52;;
69414;SDS011;56608;43.530;-5.652;2023-01-01T21:55:36;6.12;;;1.73;;
69414;SDS011;56608;43.530;-5.652;2023-01-01T21:58:01;8.77;;;1.62;;
69414;SDS011;56608;43.530;-5.652;2023-01-01T21:59:33;4.20;;;1.45;;
69414;SDS011;56608;43.530;-5.652;2023-01-01T22:00:36;3.95;;;1.50;;
69414;SDS011;56608;43.530;-5.652;2023-01-01T22:01:38;5.60;;;1.65;;
69414;SDS011;56608;43.530;-5.652;2023-01-01T22:02:43;4.47;;;1.30;;
69414;SDS011;56608;43.530;-5.652;2023-01-01T22:03:50;9.38;;;1.77;;
69414;SDS011;56608;43.530;-5.652;2023-01-01T22:06:01;5.65;;;1.80;;
69414;SDS011;56608;43.530;-5.652;2023-01-01T22:07:20;4.65;;;1.23;;
69414;SDS011;56608;43.530;-5.652;2023-01-01T22:08:25;5.22;;;1.37;;
69414;SDS011;56608;43.530;-5.652;2023-01-01T22:09:40;7.60;;;1.70;;
69414;SDS011;56608;43.530;-5.652;2023-01-01T22:10:45;6.72;;;1.87;;
69414;SDS011;56608;43.530;-5.652;2023-01-01T22:11:47;2.50;;;1.20;;
69414;SDS011;56608;43.530;-5.652;2023-01-01T22:12:56;4.80;;;1.08;;
69414;SDS011;56608;43.530;-5.652;2023-01-01T22:13:59;3.75;;;0.90;;
69414;SDS011;56608;43.530;-5.652;2023-01-01T22:16:25;3.75;;;0.95;;
69414;SDS011;56608;43.530;-5.652;2023-01-01T22:17:29;4.00;;;1.20;;
69414;SDS011;56608;43.530;-5.652;2023-01-01T22:18:34;5.18;;;1.50;;
69414;SDS011;56608;43.530;-5.652;2023-01-01T22:19:39;5.28;;;1.20;;
69414;SDS011;56608;43.530;-5.652;2023-01-01T22:20:43;4.97;;;0.88;;
69414;SDS011;56608;43.530;-5.652;2023-01-01T22:21:45;4.95;;;1.20;;
69414;SDS011;56608;43.530;-5.652;2023-01-01T22:22:48;7.45;;;1.20;;
69414;SDS011;56608;43.530;-5.652;2023-01-01T22:23:50;4.60;;;1.50;;
69414;SDS011;56608;43.530;-5.652;2023-01-01T22:24:58;7.37;;;1.40;;
69414;SDS011;56608;43.530;-5.652;2023-01-01T22:26:43;4.72;;;1.27;;
69414;SDS011;56608;43.530;-5.652;2023-01-01T22:27:30;4.57;;;1.23;;
69414;SDS011;56608;43.530;-5.652;2023-01-01T22:28:41;3.67;;;1.48;;
69414;SDS011;56608;43.530;-5.652;2023-01-01T22:29:44;3.65;;;1.00;;
69414;SDS011;56608;43.530;-5.652;2023-01-01T22:30:46;3.17;;;1.00;;
69414;SDS011;56608;43.530;-5.652;2023-01-01T22:31:55;7.05;;;1.75;;
69414;SDS011;56608;43.530;-5.652;2023-01-01T22:33:01;3.28;;;1.45;;
69414;SDS011;56608;43.530;-5.652;2023-01-01T22:34:12;5.50;;;1.52;;
69414;SDS011;56608;43.530;-5.652;2023-01-01T22:36:29;4.65;;;1.30;;
69414;SDS011;56608;43.530;-5.652;2023-01-01T22:37:34;8.38;;;1.80;;
69414;SDS011;56608;43.530;-5.652;2023-01-01T22:38:38;6.85;;;1.87;;
69414;SDS011;56608;43.530;-5.652;2023-01-01T22:39:39;8.00;;;1.92;;
69414;SDS011;56608;43.530;-5.652;2023-01-01T22:40:42;5.93;;;1.70;;
69414;SDS011;56608;43.530;-5.652;2023-01-01T22:41:48;10.07;;;2.00;;
69414;SDS011;56608;43.530;-5.652;2023-01-01T22:42:50;8.13;;;1.85;;
69414;SDS011;56608;43.530;-5.652;2023-01-01T22:43:55;6.85;;;1.90;;
69414;SDS011;56608;43.530;-5.652;2023-01-01T22:45:01;4.25;;;1.77;;
69414;SDS011;56608;43.530;-5.652;2023-01-01T22:46:15;7.15;;;1.77;;
69414;SDS011;56608;43.530;-5.652;2023-01-01T22:47:16;4.93;;;1.62;;
69414;SDS011;56608;43.530;-5.652;2023-01-01T22:48:20;4.20;;;1.50;;
69414;SDS011;56608;43.530;-5.652;2023-01-01T22:49:36;10.40;;;2.35;;
69414;SDS011;56608;43.530;-5.652;2023-01-01T22:50:39;7.05;;;1.90;;
69414;SDS011;56608;43.530;-5.652;2023-01-01T22:51:41;5.20;;;1.90;;
69414;SDS011;56608;43.530;-5.652;2023-01-01T22:52:44;10.45;;;2.00;;
69414;SDS011;56608;43.530;-5.652;2023-01-01T22:53:45;8.80;;;2.47;;
69414;SDS011;56608;43.530;-5.652;2023-01-01T22:54:47;6.62;;;1.77;;
69414;SDS011;56608;43.530;-5.652;2023-01-01T22:55:47;8.60;;;2.00;;
69414;SDS011;56608;43.530;-5.652;2023-01-01T22:56:49;10.05;;;2.15;;
69414;SDS011;56608;43.530;-5.652;2023-01-01T22:57:50;6.05;;;2.10;;
69414;SDS011;56608;43.530;-5.652;2023-01-01T22:58:52;6.37;;;1.73;;
69414;SDS011;56608;43.530;-5.652;2023-01-01T22:59:54;7.55;;;2.12;;
69414;SDS011;56608;43.530;-5.652;2023-01-01T23:00:54;13.37;;;2.80;;
69414;SDS011;56608;43.530;-5.652;2023-01-01T23:01:56;8.43;;;2.25;;
69414;SDS011;56608;43.530;-5.652;2023-01-01T23:02:58;7.87;;;2.20;;
69414;SDS011;56608;43.530;-5.652;2023-01-01T23:03:59;10.45;;;2.10;;
69414;SDS011;56608;43.530;-5.652;2023-01-01T23:05:00;10.90;;;2.40;;
69414;SDS011;56608;43.530;-5.652;2023-01-01T23:06:02;6.35;;;1.90;;
69414;SDS011;56608;43.530;-5.652;2023-01-01T23:07:03;6.32;;;1.65;;
69414;SDS011;56608;43.530;-5.652;2023-01-01T23:08:06;8.95;;;1.70;;
69414;SDS011;56608;43.530;-5.652;2023-01-01T23:09:07;7.62;;;2.53;;
69414;SDS011;56608;43.530;-5.652;2023-01-01T23:10:11;8.95;;;1.60;;
69414;SDS011;56608;43.530;-5.652;2023-01-01T23:11:13;5.93;;;1.95;;
69414;SDS011;56608;43.530;-5.652;2023-01-01T23:12:15;9.63;;;1.87;;
69414;SDS011;56608;43.530;-5.652;2023-01-01T23:13:16;9.43;;;1.80;;
69414;SDS011;56608;43.530;-5.652;2023-01-01T23:14:36;8.73;;;2.72;;
69414;SDS011;56608;43.530;-5.652;2023-01-01T23:15:56;6.70;;;2.70;;
69414;SDS011;56608;43.530;-5.652;2023-01-01T23:17:00;12.23;;;2.78;;
69414;SDS011;56608;43.530;-5.652;2023-01-01T23:18:01;7.57;;;2.25;;
69414;SDS011;56608;43.530;-5.652;2023-01-01T23:19:03;9.55;;;2.50;;
69414;SDS011;56608;43.530;-5.652;2023-01-01T23:20:05;8.30;;;2.85;;
69414;SDS011;56608;43.530;-5.652;2023-01-01T23:21:09;10.98;;;3.03;;
69414;SDS011;56608;43.530;-5.652;2023-01-01T23:22:13;9.80;;;2.80;;
69414;SDS011;56608;43.530;-5.652;2023-01-01T23:23:17;10.90;;;2.92;;
69414;SDS011;56608;43.530;-5.652;2023-01-01T23:24:19;6.47;;;2.75;;
69414;SDS011;56608;43.530;-5.652;2023-01-01T23:25:23;6.65;;;2.55;;
69414;SDS011;56608;43.530;-5.652;2023-01-01T23:26:25;6.32;;;2.22;;
69414;SDS011;56608;43.530;-5.652;2023-01-01T23:28:27;6.63;;;2.73;;
69414;SDS011;56608;43.530;-5.652;2023-01-01T23:29:31;5.28;;;2.05;;
69414;SDS011;56608;43.530;-5.652;2023-01-01T23:30:33;6.32;;;2.00;;
69414;SDS011;56608;43.530;-5.652;2023-01-01T23:31:34;5.30;;;2.22;;
69414;SDS011;56608;43.530;-5.652;2023-01-01T23:32:37;5.85;;;2.37;;
69414;SDS011;56608;43.530;-5.652;2023-01-01T23:33:39;10.27;;;3.05;;
69414;SDS011;56608;43.530;-5.652;2023-01-01T23:34:41;3.80;;;1.65;;
69414;SDS011;56608;43.530;-5.652;2023-01-01T23:35:44;5.47;;;1.95;;
69414;SDS011;56608;43.530;-5.652;2023-01-01T23:36:45;5.32;;;1.77;;
69414;SDS011;56608;43.530;-5.652;2023-01-01T23:37:47;5.70;;;1.73;;
69414;SDS011;56608;43.530;-5.652;2023-01-01T23:38:48;7.97;;;1.70;;
69414;SDS011;56608;43.530;-5.652;2023-01-01T23:39:49;6.47;;;1.63;;
69414;SDS011;56608;43.530;-5.652;2023-01-01T23:40:50;2.87;;;0.90;;
69414;SDS011;56608;43.530;-5.652;2023-01-01T23:41:52;3.03;;;0.93;;
69414;SDS011;56608;43.530;-5.652;2023-01-01T23:42:53;4.28;;;1.02;;
69414;SDS011;56608;43.530;-5.652;2023-01-01T23:43:55;1.50;;;0.60;;
69414;SDS011;56608;43.530;-5.652;2023-01-01T23:44:56;0.77;;;0.45;;
69414;SDS011;56608;43.530;-5.652;2023-01-01T23:45:58;5.07;;;0.70;;
69414;SDS011;56608;43.530;-5.652;2023-01-01T23:47:01;0.35;;;0.30;;
69414;SDS011;56608;43.530;-5.652;2023-01-01T23:48:02;0.70;;;0.50;;
69414;SDS011;56608;43.530;-5.652;2023-01-01T23:49:04;3.47;;;0.60;;
69414;SDS011;56608;43.530;-5.652;2023-01-01T23:50:07;0.77;;;0.40;;
69414;SDS011;56608;43.530;-5.652;2023-01-01T23:51:09;0.40;;;0.30;;
69414;SDS011;56608;43.530;-5.652;2023-01-01T23:52:10;1.52;;;0.40;;
69414;SDS011;56608;43.530;-5.652;2023-01-01T23:53:12;0.55;;;0.40;;
69414;SDS011;56608;43.530;-5.652;2023-01-01T23:55:13;0.50;;;0.40;;
69414;SDS011;56608;43.530;-5.652;2023-01-01T23:56:15;1.05;;;0.30;;
69414;SDS011;56608;43.530;-5.652;2023-01-01T23:57:16;3.60;;;0.40;;
69414;SDS011;56608;43.530;-5.652;2023-01-01T23:58:18;0.75;;;0.40;;
69414;SDS011;56608;43.530;-5.652;2023-01-01T23:59:19;4.65;;;0.60;;
